Tiempo atmosférico en la estación meteorológica de Opakua, Araba/Álava (660 m.)



Fecha
DESCASC
Temp. máxima en grados centígrados (hora)
DESCASC
Temp. mínima en grados centígrados (hora)
DESCASC
Temp. media en grados centígrados
DESCASC
Racha de viento máxima en m/sg (hora)
DESCASC
Velocidad máxima media en intervalos de 10 minutos(hora)
DESCASC
Precipitaciones diarias en mm
DESCASC
Precipitaciones de 00:00 a 06:00 en mm
DESCASC
Precipitaciones de 06:00 a 12:00 en mm
DESCASC
Precipitaciones de 12:00 a 18:00 en mm
DESCASC
Precipitaciones de 18:00 a 24:00 en mm
DESCASC

Gráficas

Temp. máximas Temp. mínimas Temp. medias Precipitaciones Rachas de viento máximas Velocidades máximas media en intervalos de 10 minutos

Datos horarios

Fecha y hora oficial Temperatura (ºC) Velocidad del viento (km/h) Dirección del viento Racha (km/h) Dirección de racha Precipitación (mm) Presión (hPa) Tendencia (hPa) Humedad (%)
2021-03-02 23:00:00 9 34 Sudeste 54 Sudeste 0 -- -- 83
2021-03-02 22:00:00 8.9 30 Sudeste 53 Sudeste 0 -- -- 83
2021-03-02 21:00:00 9.1 30 Sudeste 53 Sudeste 0 -- -- 80
2021-03-02 20:00:00 9.5 33 Sudeste 58 Sudeste 0 -- -- 80
2021-03-02 19:00:00 9.9 30 Sudeste 54 Sudeste 0 -- -- 78
2021-03-02 18:00:00 10.8 29 Sudeste 53 Sudeste 0 -- -- 76
2021-03-02 17:00:00 11.1 33 Sudeste 53 Este 0 -- -- 73
2021-03-02 16:00:00 11.3 30 Sudeste 54 Sudeste 0 -- -- 73
2021-03-02 15:00:00 11.4 34 Sudeste 57 Sudeste 0 -- -- 73
2021-03-02 14:00:00 11.6 27 Sudeste 53 Sudeste 0 -- -- 73
2021-03-02 13:00:00 11.2 30 Sudeste 54 Sudeste 0 -- -- 74
2021-03-02 12:00:00 10.1 32 Sudeste 56 Sudeste 0 -- -- 80
2021-03-02 11:00:00 9.4 36 Sudeste 66 Sudeste 0 -- -- 82
2021-03-02 10:00:00 8.5 37 Sudeste 63 Sudeste 0 -- -- 84
2021-03-02 09:00:00 7.9 40 Sudeste 61 Sudeste 0 -- -- 86
2021-03-02 08:00:00 7.6 37 Sudeste 65 Sudeste 0 -- -- 87
2021-03-02 07:00:00 7.6 39 Sudeste 59 Sudeste 0 -- -- 85
2021-03-02 06:00:00 7.7 35 Sudeste 52 Este 0 -- -- 85
2021-03-02 05:00:00 8.2 24 Sudeste 58 Sudeste 0 -- -- 83
2021-03-02 04:00:00 8.2 29 Sudeste 53 Sudeste 0 -- -- 85
2021-03-02 03:00:00 8.1 30 Sudeste 63 Sudeste 0 -- -- 86
2021-03-02 02:00:00 8.2 33 Sudeste 66 Sudeste 0 -- -- 85
2021-03-02 01:00:00 8.3 38 Sudeste 65 Sudeste 0 -- -- 84
2021-03-02 00:00:00 8.3 40 Sudeste 71 Sudeste 0 -- -- 83
2021-03-01 23:00:00 8.3 42 Sudeste 71 Sudeste 0 -- -- 82
2021-03-01 22:00:00 8.3 40 Sudeste 69 Sudeste 0 -- -- 84
2021-03-01 21:00:00 8.3 40 Sudeste 68 Este 0 -- -- 86
2021-03-01 20:00:00 8.2 29 Sudeste 54 Este 0 -- -- 87
2021-03-01 19:00:00 8.4 27 Sudeste 51 Sudeste 0 -- -- 85
2021-03-01 18:00:00 8.6 24 Sudeste 60 Sudeste 0 -- -- 83
2021-03-01 17:00:00 9.1 36 Sudeste 65 Sudeste 0 -- -- 81
2021-03-01 16:00:00 10 37 Sudeste 68 Sudeste 0 -- -- 76
2021-03-01 15:00:00 9.7 39 Sudeste 64 Sudeste 0 -- -- 77
2021-03-01 14:00:00 9.5 31 Sudeste 58 Sudeste 0 -- -- 77
2021-03-01 13:00:00 8.8 41 Sudeste 64 Sudeste 0 -- -- 79
2021-03-01 12:00:00 8.5 42 Sudeste 71 Sudeste 0 -- -- 79
2021-03-01 11:00:00 7.4 40 Sudeste 76 Sudeste 0 -- -- 85
2021-03-01 10:00:00 7.4 40 Sudeste 63 Sudeste 0 -- -- 84
2021-03-01 09:00:00 7.2 37 Sudeste 62 Sudeste 0 -- -- 85
2021-03-01 08:00:00 7.2 31 Sudeste 61 Sudeste 0 -- -- 83
2021-03-01 07:00:00 7.3 31 Sudeste 60 Sudeste 0 -- -- 83
2021-03-01 06:00:00 7.2 36 Sudeste 63 Sudeste 0 -- -- 81
2021-03-01 05:00:00 7.3 32 Sudeste 55 Este 0 -- -- 82
2021-03-01 04:00:00 7 32 Sudeste 64 Sudeste 0 -- -- 85
2021-03-01 03:00:00 6.8 33 Sudeste 65 Sudeste 0 -- -- 84
2021-03-01 02:00:00 7.1 37 Sudeste 61 Sudeste 0 -- -- 82
2021-03-01 01:00:00 7.5 37 Sudeste 62 Sudeste 0 -- -- 79
2021-03-01 00:00:00 7.8 30 Sudeste 57 Este 0 -- -- 79
2021-02-28 23:00:00 8 33 Sudeste 66 Sudeste 0 -- -- 80
2021-02-28 22:00:00 8.7 38 Sudeste 67 Sudeste 0.2 -- -- 81
2021-02-28 21:00:00 8.6 30 Sudeste 63 Sudeste 0 -- -- 83
2021-02-28 20:00:00 8.6 26 Sudeste 44 Sudeste 0 -- -- 88
2021-02-28 19:00:00 8 21 Este 44 Sudeste 1.4 -- -- 90
2021-02-28 18:00:00 8.1 19 Sudeste 43 Sudeste 0.4 -- -- 88
2021-02-28 17:00:00 8.1 22 Sudeste 48 Sudeste 0 -- -- 85
2021-02-28 16:00:00 7.5 15 Sudeste 35 Este 0.4 -- -- 87
2021-02-28 15:00:00 7 15 Este 32 Este 0 -- -- 90
2021-02-28 14:00:00 7 15 Este 29 Este 0 -- -- 90
2021-02-28 13:00:00 7.5 10 Este 26 Este 0 -- -- 87
2021-02-28 12:00:00 7 5 Noroeste 13 Nordeste 0 -- -- 90
2021-02-28 11:00:00 5.5 4 Oeste 7 Oeste 0 -- -- 94
2021-02-28 10:00:00 4.8 3 Oeste 6 Oeste 0 -- -- 95
2021-02-28 09:00:00 4.5 2 Oeste 4 Sudoeste 0 -- -- 95
2021-02-28 08:00:00 4.1 0 Calma 3 Oeste 0 -- -- 96
2021-02-28 07:00:00 3.9 0 Calma 4 Norte 0 -- -- 96
2021-02-28 06:00:00 3.5 0 Calma 8 Sudeste 0 -- -- 96
2021-02-28 05:00:00 2.2 5 Sudeste 10 Sudeste 0 -- -- 95
2021-02-28 04:00:00 2.6 5 Sudeste 9 Sudeste 0 -- -- 93
2021-02-28 03:00:00 3.4 5 Sudeste 8 Sudeste 0 -- -- 92
2021-02-28 02:00:00 4.5 3 Sudoeste 8 Sur 0 -- -- 92
2021-02-28 01:00:00 4.3 3 Sur 8 Sudoeste 0 -- -- 91
2021-02-28 00:00:00 4.4 3 Sudoeste 10 Oeste 0 -- -- 90
2021-02-27 23:00:00 4.5 4 Sudoeste 14 Oeste 0 -- -- 88
2021-02-27 22:00:00 3.6 4 Sudoeste 9 Sudoeste 0 -- -- 89
2021-02-27 21:00:00 2.9 4 Sur 10 Sur 0 -- -- 88
2021-02-27 20:00:00 3.6 6 Sudeste 9 Noroeste 0 -- -- 82
2021-02-27 19:00:00 6 10 Noroeste 21 Noroeste 0 -- -- 74
2021-02-27 18:00:00 8.7 16 Noroeste 26 Noroeste 0 -- -- 71
2021-02-27 17:00:00 10.6 17 Noroeste 23 Noroeste 0 -- -- 62
2021-02-27 16:00:00 11.2 15 Noroeste 27 Noroeste 0 -- -- 57
2021-02-27 15:00:00 11.4 21 Noroeste 28 Noroeste 0 -- -- 68
2021-02-27 14:00:00 11.4 12 Noroeste 19 Noroeste 0 -- -- 64
2021-02-27 13:00:00 11.1 7 Norte 16 Norte 0 -- -- 67
2021-02-27 12:00:00 10.5 10 Noroeste 23 Nordeste 0 -- -- 70
2021-02-27 11:00:00 9.7 11 Norte 21 Nordeste 0 -- -- 73
2021-02-27 10:00:00 7.5 5 Oeste 17 Norte 0 -- -- 90
2021-02-27 09:00:00 6.9 5 Oeste 9 Noroeste 0 -- -- 92
2021-02-27 08:00:00 6.5 0 Calma 6 Oeste 0 -- -- 93
2021-02-27 07:00:00 6.6 4 Sur 6 Sudoeste 0 -- -- 93
2021-02-27 06:00:00 6.6 0 Calma 4 Este 0 -- -- 94
2021-02-27 05:00:00 6.6 0 Calma 5 Sudoeste 0 -- -- 93
2021-02-27 04:00:00 6.8 2 Noroeste 5 Sudeste 0 -- -- 92
2021-02-27 03:00:00 7 3 Sudoeste 5 Sudoeste 0 -- -- 91
2021-02-27 02:00:00 6.8 2 Este 6 Este 0 -- -- 89
2021-02-27 01:00:00 7.6 3 Nordeste 10 Nordeste 0 -- -- 87
2021-02-27 00:00:00 7.9 5 Este 16 Este 0 -- -- 87
2021-02-26 23:00:00 8.1 7 Nordeste 18 Nordeste 0 -- -- 88
2021-02-26 22:00:00 8.2 6 Nordeste 15 Este 0 -- -- 88
2021-02-26 21:00:00 8.2 7 Nordeste 17 Este 0 -- -- 88
2021-02-26 20:00:00 8.1 5 Este 12 Sur 0 -- -- 91
2021-02-26 19:00:00 9.4 4 Sur 14 Oeste 0 -- -- 86
2021-02-26 18:00:00 11.3 4 Norte 18 Norte 0 -- -- 77
2021-02-26 17:00:00 12.2 9 Norte 14 Norte 0 -- -- 75
2021-02-26 16:00:00 12.4 8 Noroeste 18 Nordeste 0 -- -- 74
2021-02-26 15:00:00 12.1 12 Norte 19 Nordeste 0 -- -- 78
2021-02-26 14:00:00 10.6 6 Norte 11 Norte 0 -- -- 80
2021-02-26 13:00:00 9.7 4 Oeste 9 Oeste 0 -- -- 87
2021-02-26 12:00:00 9.1 4 Noroeste 8 Noroeste 0 -- -- 90
2021-02-26 11:00:00 8.4 4 Oeste 7 Oeste 0 -- -- 96
2021-02-26 10:00:00 7.7 2 Norte 6 Noroeste 0 -- -- 96
2021-02-26 09:00:00 6.5 3 Sudeste 9 Sudeste 0 -- -- 97
2021-02-26 08:00:00 5.9 4 Sudeste 5 Este 0 -- -- 98
2021-02-26 07:00:00 5.4 5 Sudeste 8 Sudeste 0 -- -- 98
2021-02-26 06:00:00 4.8 6 Sudeste 9 Sudeste 0 -- -- 97
2021-02-26 05:00:00 4.2 7 Sudeste 12 Sudeste 0 -- -- 97
2021-02-26 04:00:00 4.6 7 Sudeste 11 Sudeste 0 -- -- 97
2021-02-26 03:00:00 4.2 8 Sudeste 10 Sudeste 0 -- -- 95
2021-02-26 02:00:00 4.9 7 Sudeste 10 Este 0 -- -- 95
2021-02-26 01:00:00 6 3 Sur 9 Sudeste 0 -- -- 93
2021-02-26 00:00:00 5.8 8 Sudeste 10 Sudeste 0 -- -- 93
2021-02-25 23:00:00 6.7 5 Sudeste 12 Sudeste 0 -- -- 92
2021-02-25 22:00:00 6.6 7 Sudeste 10 Sudeste 0 -- -- 89
2021-02-25 21:00:00 7.8 6 Este 15 Sudeste 0 -- -- 85
2021-02-25 20:00:00 8.3 10 Sudeste 14 Sudeste 0 -- -- 82
2021-02-25 19:00:00 9.4 5 Sudeste 10 Nordeste 0 -- -- 77
2021-02-25 18:00:00 11.1 5 Este 17 Este 0 -- -- 71
2021-02-25 17:00:00 11.5 4 Norte 22 Sudeste 0 -- -- 71
2021-02-25 16:00:00 11.7 14 Sudeste 25 Sudeste 0 -- -- 71
2021-02-25 15:00:00 11.4 9 Sudeste 30 Este 0 -- -- 72
2021-02-25 14:00:00 11.1 10 Sudeste 36 Sudeste 0 -- -- 74
2021-02-25 13:00:00 10.5 13 Nordeste 41 Este 0 -- -- 75
2021-02-25 12:00:00 8.9 22 Este 53 Este 0 -- -- 81
2021-02-25 11:00:00 8.3 14 Este 45 Este 0 -- -- 83
2021-02-25 10:00:00 7.6 18 Este 50 Sudeste 0 -- -- 84
2021-02-25 09:00:00 7.3 34 Sudeste 67 Sudeste 0 -- -- 83
2021-02-25 08:00:00 7.1 44 Sudeste 72 Sudeste 0 -- -- 84
2021-02-25 07:00:00 7.1 46 Sudeste 69 Sudeste 0 -- -- 83
2021-02-25 06:00:00 7.7 41 Sudeste 63 Sudeste 0 -- -- 80
2021-02-25 05:00:00 8.3 41 Sudeste 60 Sudeste 0 -- -- 80
2021-02-25 04:00:00 8.9 35 Sudeste 54 Sudeste 0 -- -- 80
2021-02-25 03:00:00 9.5 32 Sudeste 51 Sudeste 0 -- -- 79
2021-02-25 02:00:00 10.1 32 Sudeste 52 Sudeste 0 -- -- 85
2021-02-25 01:00:00 10.3 33 Sudeste 53 Sudeste 0 -- -- 84
2021-02-25 00:00:00 10.6 31 Sudeste 57 Sudeste 0 -- -- 82
2021-02-24 23:00:00 11.3 32 Sudeste 57 Sudeste 0 -- -- 84
2021-02-24 22:00:00 11.7 36 Sudeste 60 Sudeste 0 -- -- 83
2021-02-24 21:00:00 11.9 34 Sudeste 59 Sudeste 0 -- -- 81
2021-02-24 20:00:00 12.3 32 Sudeste 58 Sudeste 0 -- -- 78
2021-02-24 19:00:00 12.5 30 Sudeste 48 Sudeste 0 -- -- 78
2021-02-24 18:00:00 13.4 33 Sudeste 55 Sudeste 0 -- -- 73
2021-02-24 17:00:00 14.3 27 Sudeste 50 Este 0 -- -- 71
2021-02-24 16:00:00 14.4 29 Sudeste 62 Sudeste 0 -- -- 70
2021-02-24 15:00:00 13.8 39 Sudeste 61 Sudeste 0 -- -- 70
2021-02-24 14:00:00 13.3 39 Sudeste 67 Sudeste 0 -- -- 73
2021-02-24 13:00:00 12 46 Sudeste 73 Sudeste 0 -- -- 76
2021-02-24 12:00:00 11.1 41 Sudeste 75 Sudeste 0 -- -- 77
2021-02-24 11:00:00 10.2 46 Sudeste 73 Sudeste 0 -- -- 78
2021-02-24 10:00:00 9.5 46 Sudeste 73 Sudeste 0 -- -- 81
2021-02-24 09:00:00 8.5 45 Sudeste 70 Sudeste 0 -- -- 83
2021-02-24 08:00:00 8.5 42 Sudeste 77 Sudeste 0 -- -- 83
2021-02-24 07:00:00 9 49 Sudeste 78 Sudeste 0 -- -- 80
2021-02-24 06:00:00 9.6 49 Sudeste 78 Sudeste 0 -- -- 77
2021-02-24 05:00:00 9.7 43 Sudeste 69 Sudeste 0 -- -- 77
2021-02-24 04:00:00 9.4 42 Sudeste 71 Sudeste 0 -- -- 82
2021-02-24 03:00:00 10 40 Sudeste 71 Sur 0 -- -- 80
2021-02-24 02:00:00 10.5 36 Sudeste 71 Sudeste 0 -- -- 77
2021-02-24 01:00:00 10.3 47 Sudeste 76 Sudeste 0 -- -- 79
2021-02-24 00:00:00 10 38 Sudeste 66 Sudeste 0 -- -- 80
2021-02-23 23:00:00 10 34 Sudeste 57 Sudeste 0 -- -- 80
2021-02-23 22:00:00 9.9 36 Sudeste 57 Sudeste 0 -- -- 79
2021-02-23 21:00:00 10.1 32 Sudeste 65 Sudeste 0 -- -- 77
2021-02-23 20:00:00 10.5 39 Sudeste 66 Sudeste 0 -- -- 73
2021-02-23 19:00:00 10.6 29 Sudeste 57 Este 0 -- -- 71
2021-02-23 18:00:00 11.6 24 Sudeste 57 Sudeste 0 -- -- 65
2021-02-23 17:00:00 12.3 31 Sudeste 53 Sudeste 0 -- -- 61
2021-02-23 16:00:00 12.5 34 Sudeste 53 Sudeste 0 -- -- 59
2021-02-23 15:00:00 12.2 26 Sudeste 54 Este 0 -- -- 65
2021-02-23 14:00:00 12 19 Sudeste 50 Sudeste 0 -- -- 64
2021-02-23 13:00:00 10.8 23 Sudeste 48 Sudeste 0 -- -- 71
2021-02-23 12:00:00 9.5 30 Sudeste 62 Sudeste 0 -- -- 73
2021-02-23 11:00:00 8.7 44 Sudeste 77 Sudeste 0.2 -- -- 75
2021-02-23 10:00:00 7.9 41 Sudeste 68 Sudeste 0 -- -- 79
2021-02-23 09:00:00 6.3 28 Sudeste 61 Sudeste 0 -- -- 84
2021-02-23 08:00:00 6.8 26 Sudeste 58 Este 0 -- -- 81
2021-02-23 07:00:00 6.1 19 Sudeste 45 Sudeste 0 -- -- 84
2021-02-23 06:00:00 6.1 14 Sudeste 41 Sur 0 -- -- 88
2021-02-23 05:00:00 6.3 13 Sur 39 Sudeste 0 -- -- 87
2021-02-23 04:00:00 5.6 14 Sudeste 30 Sudeste 0 -- -- 96
2021-02-23 03:00:00 3.2 2 Norte 9 Sur 0 -- -- 99
2021-02-23 02:00:00 3.2 4 Norte 9 Sudeste 0 -- -- 100
2021-02-23 01:00:00 2.5 3 Sur 12 Sudeste 0 -- -- 99
2021-02-23 00:00:00 2.9 6 Sudeste 10 Noroeste 0 -- -- 97
2021-02-22 23:00:00 4 7 Nordeste 14 Este 0 -- -- 98
2021-02-22 22:00:00 3.5 8 Sudeste 11 Sudeste 0 -- -- 99
2021-02-22 21:00:00 3.2 6 Sudeste 9 Sudeste 0 -- -- 100
2021-02-22 20:00:00 3.2 7 Sudeste 9 Sudeste 0 -- -- 99
2021-02-22 19:00:00 3.4 7 Sudeste 9 Sudeste 0 -- -- 98
2021-02-22 18:00:00 4 5 Sudeste 7 Sudeste 0 -- -- 98
2021-02-22 17:00:00 4.7 4 Sudeste 7 Sudeste 0 -- -- 98
2021-02-22 16:00:00 4.8 2 Noroeste 7 Oeste 0 -- -- 99
2021-02-22 15:00:00 4.9 0 Calma 4 Este 0 -- -- 98
2021-02-22 14:00:00 4.5 2 Sudeste 4 Sur 0.4 -- -- 99
2021-02-22 13:00:00 4.2 3 Sudoeste 5 Sudoeste 0.2 -- -- 99
2021-02-22 12:00:00 3 0 Calma 5 Sur 0.2 -- -- 99
2021-02-22 11:00:00 2.2 4 Sudeste 12 Sudeste 1 -- -- 100
2021-02-22 10:00:00 1.2 8 Sudeste 11 Sudeste 0.4 -- -- 99
2021-02-22 09:00:00 0.8 8 Sudeste 10 Sudeste 0.8 -- -- 99
2021-02-22 08:00:00 0.7 5 Sudeste 8 Sudeste 3.4 -- -- 100
2021-02-22 07:00:00 0.5 5 Sur 6 Sudeste 5.4 -- -- 99
2021-02-22 06:00:00 0.5 4 Sur 6 Sur 5.6 -- -- 99
2021-02-22 05:00:00 0.7 2 Sur 12 Sur 4.4 -- -- 98
2021-02-22 04:00:00 2 6 Sur 11 Noroeste 3.6 -- -- 98
2021-02-22 03:00:00 3.1 12 Noroeste 31 Oeste 12 -- -- 97
2021-02-22 02:00:00 5.2 17 Sudoeste 30 Oeste 5.2 -- -- 92
2021-02-22 01:00:00 9.5 15 Este 32 Este 0.8 -- -- 87
2021-02-22 00:00:00 9.8 16 Este 32 Este 0.4 -- -- 84
2021-02-21 23:00:00 10.4 18 Este 44 Este 0 -- -- 78
2021-02-21 22:00:00 10.5 23 Este 53 Este 0 -- -- 79
2021-02-21 21:00:00 10.6 22 Este 51 Este 0 -- -- 80
2021-02-21 20:00:00 10.1 19 Sudeste 48 Este 0.4 -- -- 84
2021-02-21 19:00:00 9.5 23 Este 45 Sudeste 0.8 -- -- 87
2021-02-21 18:00:00 9.5 15 Este 38 Sudeste 1 -- -- 86
2021-02-21 17:00:00 9.7 27 Sudeste 69 Sudeste 0 -- -- 83
2021-02-21 16:00:00 10 38 Sudeste 75 Este 0 -- -- 80
2021-02-21 15:00:00 9.9 37 Sudeste 73 Sudeste 0 -- -- 78
2021-02-21 14:00:00 9.8 24 Sudeste 63 Sudeste 0 -- -- 76
2021-02-21 13:00:00 10 36 Sudeste 68 Sudeste 0 -- -- 70
2021-02-21 12:00:00 10.2 45 Sudeste 72 Sudeste 0 -- -- 65
2021-02-21 11:00:00 9.6 37 Sudeste 67 Este 0 -- -- 68
2021-02-21 10:00:00 8.5 33 Sudeste 58 Este 0 -- -- 73
2021-02-21 09:00:00 7.9 37 Sudeste 72 Sudeste 0 -- -- 76
2021-02-21 08:00:00 7.7 47 Sudeste 87 Sudeste 0 -- -- 74
2021-02-21 07:00:00 7.7 53 Sudeste 87 Sudeste 0 -- -- 73
2021-02-21 06:00:00 7.8 46 Sudeste 82 Este 0 -- -- 73
2021-02-21 05:00:00 8 50 Sudeste 84 Sudeste 0 -- -- 72
2021-02-21 04:00:00 8.5 54 Sudeste 78 Este 0 -- -- 69
2021-02-21 03:00:00 8.8 49 Sudeste 84 Sudeste 0 -- -- 67
2021-02-21 02:00:00 8.9 49 Sudeste 83 Sudeste 0 -- -- 69
2021-02-21 01:00:00 9.6 45 Sudeste 80 Sudeste 0 -- -- 68
2021-02-21 00:00:00 10.3 54 Sudeste 88 Sudeste 0 -- -- 66
2021-02-20 23:00:00 11 45 Sudeste 73 Sudeste 0 -- -- 64
2021-02-20 22:00:00 11.9 44 Sudeste 81 Sudeste 0 -- -- 60
2021-02-20 21:00:00 12.6 40 Sudeste 68 Sudeste 0 -- -- 61
2021-02-20 20:00:00 13.4 27 Sudeste 62 Sudeste 0 -- -- 62
2021-02-20 19:00:00 13.8 35 Sudeste 56 Sudeste 0 -- -- 62
2021-02-20 18:00:00 14.6 27 Sudeste 55 Sudeste 0 -- -- 57
2021-02-20 17:00:00 14.8 31 Sudeste 63 Sudeste 0 -- -- 52
2021-02-20 16:00:00 15.7 33 Sudeste 68 Este 0 -- -- 48
2021-02-20 15:00:00 15.7 40 Sudeste 68 Sudeste 0 -- -- 47
2021-02-20 14:00:00 14.8 42 Sudeste 73 Sudeste 0 -- -- 49
2021-02-20 13:00:00 15.1 40 Sudeste 75 Sudeste 0 -- -- 46
2021-02-20 12:00:00 13.5 44 Sudeste 82 Sudeste 0 -- -- 48
2021-02-20 11:00:00 12.6 41 Sudeste 82 Sudeste 0 -- -- 51
2021-02-20 10:00:00 11.7 51 Sudeste 81 Sudeste 0 -- -- 53
2021-02-20 09:00:00 9.7 37 Sudeste 73 Sudeste 0 -- -- 60
2021-02-20 08:00:00 10.3 46 Sudeste 75 Sudeste 0 -- -- 56
2021-02-20 07:00:00 11.3 48 Sudeste 80 Sudeste 0 -- -- 51
2021-02-20 06:00:00 11.2 49 Sudeste 80 Sudeste 0 -- -- 51
2021-02-20 05:00:00 10.2 42 Sudeste 81 Sudeste 0 -- -- 58
2021-02-20 04:00:00 10.4 45 Sudeste 74 Sudeste 0 -- -- 59
2021-02-20 03:00:00 10.6 45 Sudeste 73 Sudeste 0 -- -- 60
2021-02-20 02:00:00 11.5 43 Sudeste 69 Sudeste 0 -- -- 56
2021-02-20 01:00:00 11.9 40 Sudeste 72 Sudeste 0 -- -- 54
2021-02-20 00:00:00 12.2 46 Sudeste 71 Sudeste 0 -- -- 52
2021-02-19 23:00:00 12.2 35 Sudeste 59 Sudeste 0 -- -- 55
2021-02-19 22:00:00 12.1 30 Sudeste 48 Sudeste 0 -- -- 58
2021-02-19 21:00:00 12.8 28 Sudeste 46 Sudeste 0 -- -- 56
2021-02-19 20:00:00 13.7 27 Sudeste 42 Sudeste 0 -- -- 53
2021-02-19 19:00:00 14.8 19 Sudeste 36 Este 0 -- -- 45
2021-02-19 18:00:00 15.8 21 Sudeste 39 Sudeste 0 -- -- 46
2021-02-19 17:00:00 16.6 20 Sudeste 38 Sudeste 0 -- -- 46
2021-02-19 16:00:00 16.6 17 Sudeste 38 Sudeste 0 -- -- 47
2021-02-19 15:00:00 16.3 13 Sudeste 39 Sudeste 0 -- -- 49
2021-02-19 14:00:00 15.6 17 Sudeste 36 Sudeste 0 -- -- 49
2021-02-19 13:00:00 15 16 Sudeste 37 Este 0 -- -- 48
2021-02-19 12:00:00 13.7 23 Sudeste 40 Sudeste 0 -- -- 49
2021-02-19 11:00:00 13.5 18 Sudeste 35 Sudeste 0 -- -- 51
2021-02-19 10:00:00 12.3 18 Sudeste 28 Sur 0 -- -- 54
2021-02-19 09:00:00 9.8 13 Sudeste 24 Sudeste 0 -- -- 63
2021-02-19 08:00:00 9.2 19 Sudeste 29 Sudeste 0 -- -- 63
2021-02-19 07:00:00 10.6 13 Sur 26 Sudeste 0 -- -- 60
2021-02-19 06:00:00 10.9 12 Sudeste 25 Sudeste 0 -- -- 62
2021-02-19 05:00:00 11.2 15 Sudeste 28 Sur 0 -- -- 62
2021-02-19 04:00:00 11.5 15 Sudeste 28 Sur 0 -- -- 64
2021-02-19 03:00:00 11.1 15 Sur 25 Sudeste 0 -- -- 69
2021-02-19 02:00:00 11.1 13 Sur 21 Sur 0 -- -- 71
2021-02-19 01:00:00 11.3 9 Sur 25 Sur 0 -- -- 71
2021-02-19 00:00:00 11.7 16 Sur 30 Sur 0 -- -- 70
2021-02-18 23:00:00 11.4 9 Sur 21 Sudoeste 0 -- -- 71
2021-02-18 22:00:00 12.4 8 Sudoeste 26 Sur 0 -- -- 65
2021-02-18 21:00:00 12.5 14 Sur 28 Sur 0 -- -- 64
2021-02-18 20:00:00 12.3 6 Oeste 20 Sur 0 -- -- 66
2021-02-18 19:00:00 13 9 Sudoeste 26 Sudoeste 0 -- -- 60
2021-02-18 18:00:00 14.2 14 Sudoeste 35 Sudoeste 0 -- -- 54
2021-02-18 17:00:00 15 13 Sudoeste 28 Sudoeste 0 -- -- 53
2021-02-18 16:00:00 15.9 17 Sudoeste 34 Sudoeste 0 -- -- 48
2021-02-18 15:00:00 15 22 Oeste 51 Sudoeste 0 -- -- 47
2021-02-18 14:00:00 16.3 22 Sudoeste 44 Sudoeste 0 -- -- 37
2021-02-18 13:00:00 16.7 16 Oeste 31 Sudoeste 0 -- -- 48
2021-02-18 12:00:00 13.8 10 Sur 34 Sudeste 0 -- -- 51
2021-02-18 11:00:00 12.7 21 Sudeste 39 Sudeste 0 -- -- 56
2021-02-18 10:00:00 9.3 28 Sudeste 46 Sudeste 0 -- -- 72
2021-02-18 09:00:00 8.5 30 Sudeste 45 Sudeste 0 -- -- 79
2021-02-18 08:00:00 8.3 28 Sudeste 45 Sur 0 -- -- 80
2021-02-18 07:00:00 8.5 27 Sudeste 45 Sudeste 0 -- -- 81
2021-02-18 06:00:00 8.8 28 Sudeste 50 Sudeste 0 -- -- 83
2021-02-18 05:00:00 9 29 Sudeste 49 Sudeste 0 -- -- 82
2021-02-18 04:00:00 9.3 28 Sudeste 43 Sudeste 0 -- -- 79
2021-02-18 03:00:00 9.4 26 Sudeste 42 Sudeste 0 -- -- 80
2021-02-18 02:00:00 10 26 Sudeste 44 Sudeste 0 -- -- 77
2021-02-18 01:00:00 10.4 30 Sudeste 51 Sudeste 0 -- -- 76
2021-02-18 00:00:00 10.7 28 Sudeste 52 Sudeste 0 -- -- 77
2021-02-17 23:00:00 11.5 37 Sudeste 59 Sudeste 0 -- -- 74
2021-02-17 22:00:00 11 31 Sudeste 54 Sudeste 0 -- -- 77
2021-02-17 21:00:00 11.5 28 Sudeste 45 Sudeste 0 -- -- 76
2021-02-17 20:00:00 11.3 27 Sudeste 40 Sudeste 0 -- -- 78
2021-02-17 19:00:00 11.8 22 Sudeste 35 Sudeste 0 -- -- 78
2021-02-17 18:00:00 13.2 17 Sudeste 28 Sur 0 -- -- 71
2021-02-17 17:00:00 13.3 15 Sudeste 33 Sudeste 0 -- -- 71
2021-02-17 16:00:00 13.1 13 Sudeste 24 Sudeste 0 -- -- 71
2021-02-17 15:00:00 14.2 9 Sur 21 Sur 0 -- -- 63
2021-02-17 14:00:00 13.7 10 Sur 27 Sur 0 -- -- 67
2021-02-17 13:00:00 14.5 12 Sur 30 Sur 0 -- -- 61
2021-02-17 12:00:00 13.6 13 Sur 28 Sur 0 -- -- 68
2021-02-17 11:00:00 12.3 10 Sur 23 Sur 0 -- -- 71
2021-02-17 10:00:00 10.5 11 Sudeste 22 Sur 0 -- -- 78
2021-02-17 09:00:00 9.9 13 Sur 26 Sur 0 -- -- 79
2021-02-17 08:00:00 10 13 Sur 22 Sur 0 -- -- 78
2021-02-17 07:00:00 9.5 5 Sur 16 Sur 0 -- -- 84
2021-02-17 06:00:00 8.4 2 Este 12 Sur 0 -- -- 87
2021-02-17 05:00:00 7.3 3 Sudoeste 12 Sudeste 0 -- -- 89
2021-02-17 04:00:00 6.8 5 Sur 13 Sudeste 0 -- -- 90
2021-02-17 03:00:00 8.7 4 Noroeste 16 Sudoeste 0 -- -- 84
2021-02-17 02:00:00 7.8 7 Sudeste 9 Sudeste 0 -- -- 86
2021-02-17 01:00:00 9.2 0 Calma 16 Sur 0 -- -- 83
2021-02-17 00:00:00 9.9 2 Sudoeste 23 Sudoeste 0 -- -- 79
2021-02-16 23:00:00 11 11 Sur 30 Sudoeste 0 -- -- 76
2021-02-16 22:00:00 11.9 12 Sudoeste 24 Sudoeste 0 -- -- 72
2021-02-16 21:00:00 11.8 8 Sudoeste 23 Sudoeste 0 -- -- 72
2021-02-16 20:00:00 11.7 6 Sudoeste 15 Sur 0 -- -- 72
2021-02-16 19:00:00 11.6 4 Sur 10 Sudoeste 0 -- -- 74
2021-02-16 18:00:00 12.2 3 Sudoeste 23 Sur 0 -- -- 70
2021-02-16 17:00:00 12.8 12 Sur 30 Sudoeste 0 -- -- 65
2021-02-16 16:00:00 13.4 13 Sur 32 Sur 0 -- -- 61
2021-02-16 15:00:00 13.8 13 Sur 27 Sur 0 -- -- 59
2021-02-16 14:00:00 14 17 Sudoeste 36 Sudeste 0 -- -- 60
2021-02-16 13:00:00 13.2 23 Sur 45 Sur 0 -- -- 59
2021-02-16 12:00:00 11.1 24 Sudeste 51 Sudeste 0 -- -- 72
2021-02-16 11:00:00 8.5 34 Sudeste 67 Sudeste 0 -- -- 84
2021-02-16 10:00:00 7 41 Sudeste 72 Sudeste 0 -- -- 90
2021-02-16 09:00:00 6.6 34 Sudeste 69 Sudeste 0 -- -- 91
2021-02-16 08:00:00 6.7 38 Sudeste 70 Sudeste 0 -- -- 90
2021-02-16 07:00:00 6.8 38 Sudeste 69 Sudeste 0 -- -- 89
2021-02-16 06:00:00 7 12 Nordeste 48 Sudeste 0 -- -- 89
2021-02-16 05:00:00 6.5 40 Sudeste 82 Sudeste 0 -- -- 94
2021-02-16 04:00:00 6.5 55 Sudeste 95 Sudeste 0 -- -- 94
2021-02-16 03:00:00 6.7 46 Sudeste 85 Sudeste 0 -- -- 93
2021-02-16 02:00:00 7.2 36 Este 82 Sudeste 0 -- -- 91
2021-02-16 01:00:00 7.5 51 Sudeste 87 Sudeste 0 -- -- 90
2021-02-16 00:00:00 7.6 54 Sudeste 88 Sudeste 0 -- -- 91
2021-02-15 23:00:00 7.6 50 Sudeste 81 Sudeste 0 -- -- 90
2021-02-15 22:00:00 7.8 49 Sudeste 79 Sudeste 0 -- -- 89
2021-02-15 21:00:00 7.6 24 Este 63 Sudeste 0 -- -- 88
2021-02-15 20:00:00 7.7 22 Este 57 Este 0 -- -- 88
2021-02-15 19:00:00 7.6 10 Noroeste 33 Sur 0 -- -- 88
2021-02-15 18:00:00 8.2 10 Norte 37 Nordeste 0 -- -- 84
2021-02-15 17:00:00 7.7 13 Noroeste 50 Sudeste 0 -- -- 86
2021-02-15 16:00:00 9.4 10 Oeste 49 Este 0 -- -- 78
2021-02-15 15:00:00 7.9 31 Sudeste 54 Sudeste 0 -- -- 85
2021-02-15 14:00:00 8.1 28 Sudeste 53 Sudeste 0 -- -- 83
2021-02-15 13:00:00 8.9 12 Sur 51 Sudeste 0 -- -- 80
2021-02-15 12:00:00 7.9 25 Sudeste 51 Sudeste 0 -- -- 80
2021-02-15 11:00:00 6.4 21 Sudeste 50 Sudeste 0 -- -- 88
2021-02-15 10:00:00 5.9 18 Sudeste 63 Sudeste 0 -- -- 92
2021-02-15 09:00:00 5.2 38 Sudeste 60 Este 0 -- -- 93
2021-02-15 08:00:00 5.2 21 Sudeste 48 Sudeste 0 -- -- 92
2021-02-15 07:00:00 5.6 12 Oeste 69 Sudeste 0 -- -- 90
2021-02-15 06:00:00 5.1 44 Sudeste 74 Sudeste 0 -- -- 93
2021-02-15 05:00:00 4.9 43 Sudeste 69 Sudeste 0 -- -- 95
2021-02-15 04:00:00 5.2 39 Sudeste 80 Este 0 -- -- 95
2021-02-15 03:00:00 5.6 44 Sudeste 75 Sudeste 0 -- -- 94
2021-02-15 02:00:00 6 47 Sudeste 79 Sudeste 0 -- -- 93
2021-02-15 01:00:00 6.2 49 Sudeste 82 Sudeste 0 -- -- 94
2021-02-15 00:00:00 6.7 42 Sudeste 74 Sudeste 0 -- -- 93
2021-02-14 23:00:00 7.2 46 Sudeste 77 Sudeste 0 -- -- 92
2021-02-14 22:00:00 7.7 46 Sudeste 76 Sudeste 0 -- -- 90
2021-02-14 21:00:00 8.3 42 Sudeste 75 Sudeste 0 -- -- 88
2021-02-14 20:00:00 8.8 46 Sudeste 74 Sudeste 0 -- -- 86
2021-02-14 19:00:00 9.3 47 Sudeste 73 Sudeste 0 -- -- 83
2021-02-14 18:00:00 9.5 38 Sudeste 70 Sudeste 0 -- -- 81
2021-02-14 17:00:00 9.8 49 Sudeste 76 Sudeste 0 -- -- 81
2021-02-14 16:00:00 10.6 48 Sudeste 76 Sudeste 0 -- -- 75
2021-02-14 15:00:00 11.6 44 Sudeste 68 Sudeste 0 -- -- 71
2021-02-14 14:00:00 11.2 42 Sudeste 63 Sudeste 0 -- -- 72
2021-02-14 13:00:00 10.4 41 Sudeste 67 Sudeste 0 -- -- 75
2021-02-14 12:00:00 10 19 Sudeste 43 Sudeste 0 -- -- 78
2021-02-14 11:00:00 8.8 18 Este 47 Sudeste 0 -- -- 83
2021-02-14 10:00:00 7.4 36 Sudeste 50 Sudeste 0 -- -- 87
2021-02-14 09:00:00 6.6 12 Sudeste 23 Sudeste 0 -- -- 88
2021-02-14 08:00:00 7.3 10 Sudeste 19 Sudeste 0 -- -- 95
2021-02-14 07:00:00 3.2 7 Sudeste 9 Sudeste 0 -- -- 99
2021-02-14 06:00:00 2.9 8 Sudeste 12 Sudeste 0 -- -- 98
2021-02-14 05:00:00 3.2 10 Sudeste 12 Sudeste 0 -- -- 99
2021-02-14 04:00:00 3.3 4 Sudeste 11 Sudeste 0 -- -- 97
2021-02-14 03:00:00 3.7 9 Sudeste 15 Sudeste 0 -- -- 97
2021-02-14 02:00:00 4.2 12 Sudeste 15 Sudeste 0 -- -- 97
2021-02-14 01:00:00 4.2 11 Sudeste 15 Sudeste 0 -- -- 95
2021-02-14 00:00:00 4.6 12 Sudeste 14 Sudeste 0 -- -- 95
2021-02-13 23:00:00 5.1 9 Sudeste 12 Sudeste 0 -- -- 94
2021-02-13 22:00:00 5.9 8 Sudeste 11 Sudeste 0 -- -- 90
2021-02-13 21:00:00 7.7 8 Sudeste 10 Sudeste 0 -- -- 89
2021-02-13 20:00:00 8 5 Sudeste 7 Sudeste 0 -- -- 90
2021-02-13 19:00:00 8.1 3 Sudeste 6 Sudeste 0 -- -- 89
2021-02-13 18:00:00 10.2 3 Sudoeste 12 Oeste 0 -- -- 82
2021-02-13 17:00:00 11.4 4 Noroeste 9 Noroeste 0 -- -- 76
2021-02-13 16:00:00 10.2 4 Sudoeste 7 Sudoeste 0 -- -- 87
2021-02-13 15:00:00 8.9 3 Noroeste 17 Oeste 0 -- -- 87
2021-02-13 14:00:00 8.9 8 Oeste 15 Oeste 0 -- -- 88
2021-02-13 13:00:00 8.6 3 Este 6 Este 0 -- -- 90
2021-02-13 08:00:00 -- -- -- -- -- -- -- -- --
2021-02-13 07:00:00 2.9 8 Sudeste 10 Sudeste 0 -- -- 100
2021-02-13 06:00:00 3.1 5 Sudeste 9 Este 0 -- -- 99
2021-02-13 05:00:00 3.3 6 Sudeste 9 Sudeste 0 -- -- 99
2021-02-13 04:00:00 3.8 6 Sudeste 8 Sudeste 0 -- -- 98
2021-02-13 03:00:00 5.2 6 Sudeste 8 Sudeste 0 -- -- 98
2021-02-13 02:00:00 4.8 3 Sudeste 9 Sudoeste 0 -- -- 96
2021-02-13 01:00:00 6.6 3 Sudoeste 13 Sudoeste 0 -- -- 93
2021-02-13 00:00:00 7.5 7 Oeste 15 Oeste 0 -- -- 95
2021-02-12 23:00:00 7.6 5 Sudoeste 23 Oeste 0 -- -- 95
2021-02-12 22:00:00 7.5 12 Oeste 22 Oeste 0 -- -- 95
2021-02-12 21:00:00 7.7 15 Noroeste 32 Oeste 0 -- -- 93
2021-02-12 20:00:00 8.1 19 Oeste 31 Oeste 0 -- -- 94
2021-02-12 19:00:00 8.3 15 Oeste 29 Oeste 0 -- -- 96
2021-02-12 18:00:00 8.7 18 Oeste 41 Oeste 0 -- -- 96
2021-02-12 17:00:00 9.1 23 Oeste 42 Oeste 1 -- -- 94
2021-02-12 16:00:00 8.8 19 Noroeste 32 Oeste 3.2 -- -- 98
2021-02-12 15:00:00 8.8 16 Oeste 33 Oeste 1.2 -- -- 98
2021-02-12 14:00:00 8.8 10 Oeste 31 Oeste 0.2 -- -- 96
2021-02-12 13:00:00 8.9 18 Oeste 33 Noroeste 0.4 -- -- 95
2021-02-12 12:00:00 8.5 13 Oeste 37 Sudoeste 2.4 -- -- 96
2021-02-12 11:00:00 9.2 15 Oeste 32 Sudoeste 2 -- -- 97
2021-02-12 10:00:00 9.5 2 Noroeste 9 Sudoeste 1 -- -- 98
2021-02-12 09:00:00 9.3 3 Sudoeste 22 Oeste 1.4 -- -- 97
2021-02-12 08:00:00 10.5 8 Oeste 42 Sudoeste 0 -- -- 84
2021-02-12 07:00:00 11 21 Sudoeste 43 Sudoeste 0 -- -- 78
2021-02-12 06:00:00 11 18 Sur 44 Sudoeste 0.2 -- -- 80
2021-02-12 05:00:00 11.3 21 Sur 35 Sur 0.8 -- -- 82
2021-02-12 04:00:00 12.2 18 Sudeste 33 Sudeste 0 -- -- 75
2021-02-12 03:00:00 11.1 19 Sudeste 28 Sudeste 0 -- -- 81
2021-02-12 02:00:00 11 17 Sudeste 36 Sudeste 0 -- -- 81
2021-02-12 01:00:00 11.4 24 Sudeste 38 Sudeste 0 -- -- 80
2021-02-12 00:00:00 11.1 17 Sudeste 33 Sudeste 0 -- -- 79
2021-02-11 23:00:00 11 7 Sudeste 13 Nordeste 0 -- -- 81
2021-02-11 22:00:00 13.1 8 Oeste 32 Sur 0 -- -- 75
2021-02-11 21:00:00 13.1 14 Sur 35 Sur 0 -- -- 77
2021-02-11 20:00:00 12.7 14 Sur 23 Sur 0 -- -- 75
2021-02-11 19:00:00 10.7 6 Sudeste 10 Sudeste 0 -- -- 83
2021-02-11 18:00:00 12.7 4 Este 14 Oeste 0 -- -- 80
2021-02-11 17:00:00 13.3 6 Oeste 19 Oeste 0 -- -- 81
2021-02-11 16:00:00 13.9 11 Oeste 31 Oeste 0 -- -- 79
2021-02-11 15:00:00 13.9 15 Oeste 24 Oeste 0 -- -- 77
2021-02-11 14:00:00 13 4 Sudeste 9 Norte 0 -- -- 79
2021-02-11 13:00:00 12.1 4 Nordeste 16 Sudoeste 0 -- -- 82
2021-02-11 12:00:00 10.9 5 Oeste 12 Sur 0 -- -- 83
2021-02-11 11:00:00 9.8 3 Norte 8 Nordeste 0 -- -- 84
2021-02-11 10:00:00 7.9 3 Nordeste 9 Nordeste 0 -- -- 91
2021-02-11 09:00:00 6.5 4 Este 7 Este 0 -- -- 91
2021-02-11 08:00:00 6.1 4 Nordeste 7 Nordeste 0 -- -- 87
2021-02-11 07:00:00 6 3 Oeste 11 Sur 0 -- -- 88
2021-02-11 06:00:00 4.3 8 Sudeste 11 Sudeste 0 -- -- 93
2021-02-11 05:00:00 4.4 5 Sudeste 11 Sudeste 0 -- -- 92
2021-02-11 04:00:00 4.4 6 Sudeste 8 Sudeste 0 -- -- 93
2021-02-11 03:00:00 3.9 6 Sudeste 12 Sudoeste 0 -- -- 93
2021-02-11 02:00:00 3 2 Sur 13 Sudeste 0 -- -- 94
2021-02-11 01:00:00 2.7 9 Sudeste 12 Sudeste 0 -- -- 96
2021-02-11 00:00:00 1.9 8 Sudeste 10 Sudeste 0 -- -- 96
2021-02-10 23:00:00 2.5 7 Sudeste 12 Sudeste 0 -- -- 93
2021-02-10 22:00:00 3.9 4 Sudeste 13 Sudeste 0 -- -- 91
2021-02-10 21:00:00 5 8 Sudeste 11 Sudeste 0 -- -- 89
2021-02-10 20:00:00 6.6 6 Sudeste 10 Sudeste 0 -- -- 88
2021-02-10 19:00:00 8 0 Calma 4 Oeste 0 -- -- 83
2021-02-10 18:00:00 8.7 2 Sur 11 Oeste 0 -- -- 80
2021-02-10 17:00:00 8.9 10 Noroeste 20 Noroeste 0 -- -- 76
2021-02-10 16:00:00 9 17 Noroeste 32 Oeste 0 -- -- 79
2021-02-10 15:00:00 7.9 17 Oeste 30 Oeste 0 -- -- 81
2021-02-10 14:00:00 7 15 Oeste 27 Oeste 0.4 -- -- 86
2021-02-10 13:00:00 7.1 15 Oeste 27 Oeste 0 -- -- 83
2021-02-10 12:00:00 7.5 15 Oeste 27 Oeste 0 -- -- 80
2021-02-10 11:00:00 6.9 10 Oeste 22 Oeste 0 -- -- 89
2021-02-10 10:00:00 5.2 8 Oeste 12 Oeste 0 -- -- 96
2021-02-10 09:00:00 4.4 4 Oeste 14 Oeste 0 -- -- 98
2021-02-10 08:00:00 4.3 0 Calma 12 Oeste 0.2 -- -- 96
2021-02-10 07:00:00 4.4 6 Oeste 13 Sudoeste 1.2 -- -- 94
2021-02-10 06:00:00 4.8 6 Sudoeste 17 Oeste 2.6 -- -- 93
2021-02-10 05:00:00 5.3 2 Noroeste 6 Sudoeste 0.6 -- -- 86
2021-02-10 04:00:00 5.5 3 Sudoeste 20 Sur 0 -- -- 83
2021-02-10 03:00:00 5.6 13 Sur 28 Sur 0 -- -- 82
2021-02-10 02:00:00 5.9 8 Sur 19 Sudoeste 0.2 -- -- 78
2021-02-10 01:00:00 6.2 8 Sur 37 Sudoeste 0 -- -- 75
2021-02-10 00:00:00 6.5 15 Sudoeste 35 Sudoeste 0 -- -- 74
2021-02-09 23:00:00 6.5 8 Sudoeste 23 Sur 0 -- -- 77
2021-02-09 22:00:00 6.8 12 Sudoeste 25 Sur 0 -- -- 74
2021-02-09 21:00:00 6.4 10 Sudoeste 34 Sudoeste 0 -- -- 74
2021-02-09 20:00:00 5.9 9 Sudoeste 31 Sudoeste 0 -- -- 80
2021-02-09 19:00:00 5.9 3 Sur 23 Sudoeste 0 -- -- 81
2021-02-09 18:00:00 6.9 13 Sudoeste 32 Oeste 0 -- -- 78
2021-02-09 17:00:00 7.8 13 Sudoeste 41 Sur 0 -- -- 79
2021-02-09 16:00:00 6.6 12 Sudeste 33 Sudeste 1 -- -- 85
2021-02-09 15:00:00 7.9 14 Sudoeste 38 Este 2.2 -- -- 93
2021-02-09 14:00:00 7.4 15 Sudeste 44 Sudeste 1.4 -- -- 93
2021-02-09 13:00:00 7.1 25 Sudeste 51 Sudeste 0.8 -- -- 90
2021-02-09 12:00:00 7.4 30 Sudeste 47 Sudeste 0 -- -- 80
2021-02-09 11:00:00 8.3 19 Sudeste 44 Sur 0 -- -- 78
2021-02-09 10:00:00 6.3 17 Sur 33 Sudeste 0 -- -- 86
2021-02-09 09:00:00 6 20 Sudeste 31 Sudeste 0.2 -- -- 88
2021-02-09 08:00:00 6.3 12 Sudeste 24 Sur 0.4 -- -- 88
2021-02-09 07:00:00 6.5 9 Sur 30 Sudoeste 0.6 -- -- 85
2021-02-09 06:00:00 6.8 13 Sudoeste 31 Sudoeste 0.2 -- -- 85
2021-02-09 05:00:00 7.3 13 Sudoeste 36 Sudoeste 0 -- -- 81
2021-02-09 04:00:00 7 15 Sudoeste 32 Oeste 0 -- -- 85
2021-02-09 03:00:00 5.9 3 Oeste 12 Sudoeste 0 -- -- 93
2021-02-09 02:00:00 5.4 5 Oeste 26 Oeste 0 -- -- 90
2021-02-09 01:00:00 5.8 9 Sudoeste 27 Sur 0.2 -- -- 87
2021-02-09 00:00:00 6 4 Oeste 13 Sudoeste 0 -- -- 93
2021-02-08 23:00:00 5.8 5 Sudeste 7 Sudeste 0 -- -- 97
2021-02-08 22:00:00 5.8 7 Sudeste 9 Sudeste 0.4 -- -- 97
2021-02-08 21:00:00 6 6 Sudeste 9 Sudeste 0.6 -- -- 97
2021-02-08 20:00:00 6.1 0 Calma 12 Noroeste 1.4 -- -- 96
2021-02-08 19:00:00 6 7 Sudeste 39 Oeste 2 -- -- 93
2021-02-08 18:00:00 9.2 13 Oeste 45 Oeste 0 -- -- 76
2021-02-08 17:00:00 9.6 12 Sudoeste 31 Oeste 0 -- -- 73
2021-02-08 16:00:00 10.1 18 Oeste 35 Oeste 0 -- -- 72
2021-02-08 15:00:00 9.6 21 Oeste 36 Oeste 0 -- -- 74
2021-02-08 14:00:00 10 17 Sudoeste 37 Oeste 0 -- -- 74
2021-02-08 13:00:00 9.1 17 Oeste 36 Oeste 0 -- -- 76
2021-02-08 12:00:00 8.2 17 Oeste 36 Sudoeste 0 -- -- 80
2021-02-08 11:00:00 8 14 Sudoeste 36 Oeste 0 -- -- 79
2021-02-08 10:00:00 7.4 13 Sudoeste 35 Sudoeste 0 -- -- 82
2021-02-08 09:00:00 7.5 18 Sur 36 Sudoeste 0 -- -- 85
2021-02-08 08:00:00 7.4 10 Sudoeste 26 Sur 0 -- -- 87
2021-02-08 07:00:00 7.2 5 Oeste 21 Sur 0 -- -- 88
2021-02-08 06:00:00 6.9 11 Sudoeste 24 Sudoeste 0 -- -- 87
2021-02-08 05:00:00 6.4 8 Sur 34 Sudoeste 0.4 -- -- 90
2021-02-08 04:00:00 5.2 2 Norte 8 Este 0.2 -- -- 98
2021-02-08 03:00:00 5.1 3 Nordeste 6 Sudeste 0.8 -- -- 97
2021-02-08 02:00:00 5 4 Este 18 Sudeste 0 -- -- 96
2021-02-08 01:00:00 4.9 3 Este 12 Noroeste 0 -- -- 94
2021-02-08 00:00:00 4.5 6 Sudoeste 10 Sudoeste 0 -- -- 95
2021-02-07 23:00:00 4.3 3 Este 8 Nordeste 0.4 -- -- 95
2021-02-07 22:00:00 4.3 4 Sudeste 6 Sudeste 0.6 -- -- 96
2021-02-07 21:00:00 4.7 3 Sudeste 19 Oeste 0.8 -- -- 92
2021-02-07 20:00:00 5 15 Oeste 26 Sudoeste 0 -- -- 87
2021-02-07 19:00:00 5.7 15 Oeste 32 Sudoeste 0 -- -- 79
2021-02-07 18:00:00 6.2 6 Oeste 25 Sudoeste 0 -- -- 78
2021-02-07 17:00:00 6.5 11 Oeste 27 Sudoeste 0 -- -- 77
2021-02-07 16:00:00 6.7 14 Oeste 30 Sudoeste 0 -- -- 75
2021-02-07 15:00:00 8 14 Oeste 23 Oeste 0 -- -- 68
2021-02-07 14:00:00 6.4 13 Oeste 20 Oeste 0 -- -- 78
2021-02-07 13:00:00 5.4 5 Noroeste 10 Oeste 0 -- -- 87
2021-02-07 12:00:00 4.1 5 Norte 10 Oeste 0 -- -- 92
2021-02-07 11:00:00 3.2 5 Oeste 14 Oeste 0.2 -- -- 95
2021-02-07 10:00:00 2.5 8 Oeste 13 Sudoeste 0 -- -- 98
2021-02-07 09:00:00 2.1 3 Oeste 6 Oeste 0 -- -- 99
2021-02-07 08:00:00 1.9 2 Sudeste 9 Oeste 0.2 -- -- 99
2021-02-07 07:00:00 2 8 Oeste 14 Sudoeste 0.2 -- -- 99
2021-02-07 06:00:00 2.2 6 Oeste 18 Oeste 0.2 -- -- 99
2021-02-07 05:00:00 2.3 9 Oeste 15 Oeste 0 -- -- 99
2021-02-07 04:00:00 2.2 3 Oeste 12 Oeste 0.2 -- -- 99
2021-02-07 03:00:00 2.2 6 Oeste 21 Oeste 0.2 -- -- 98
2021-02-07 02:00:00 1.8 8 Oeste 19 Oeste 0 -- -- 97
2021-02-07 01:00:00 2.3 13 Oeste 28 Noroeste 0.2 -- -- 97
2021-02-07 00:00:00 2.5 6 Oeste 13 Oeste 0 -- -- 98
2021-02-06 23:00:00 3.2 13 Noroeste 22 Oeste 0.2 -- -- 98
2021-02-06 22:00:00 3.8 8 Noroeste 22 Noroeste 0.2 -- -- 98
2021-02-06 21:00:00 4.1 10 Oeste 20 Oeste 0.2 -- -- 99
2021-02-06 20:00:00 4.3 10 Oeste 17 Noroeste 0.2 -- -- 98
2021-02-06 19:00:00 4.4 12 Noroeste 21 Noroeste 0.2 -- -- 97
2021-02-06 18:00:00 4.7 14 Noroeste 24 Noroeste 0.2 -- -- 96
2021-02-06 17:00:00 5.3 15 Noroeste 30 Noroeste 0.2 -- -- 95
2021-02-06 16:00:00 6.2 12 Noroeste 22 Oeste 0.4 -- -- 98
2021-02-06 15:00:00 6.2 14 Noroeste 26 Oeste 0.8 -- -- 98
2021-02-06 14:00:00 6.7 17 Oeste 32 Oeste 1.4 -- -- 98
2021-02-06 13:00:00 7.3 18 Oeste 33 Sudoeste 1.4 -- -- 98
2021-02-06 12:00:00 7.6 13 Oeste 26 Oeste 0.6 -- -- 98
2021-02-06 11:00:00 7.9 7 Oeste 17 Oeste 0.8 -- -- 98
2021-02-06 10:00:00 8 8 Oeste 14 Sudoeste 0.2 -- -- 98
2021-02-06 09:00:00 8 5 Oeste 13 Oeste 0 -- -- 96
2021-02-06 08:00:00 9 5 Sudoeste 12 Oeste 0 -- -- 87
2021-02-06 07:00:00 9.1 4 Sur 30 Este 0 -- -- 86
2021-02-06 06:00:00 9 21 Sudeste 31 Sudeste 0 -- -- 87
2021-02-06 05:00:00 9.3 15 Sudeste 30 Sudeste 0 -- -- 85
2021-02-06 04:00:00 9.4 23 Sudeste 42 Sudeste 0 -- -- 85
2021-02-06 03:00:00 9.7 27 Sudeste 53 Este 0 -- -- 84
2021-02-06 02:00:00 9.9 22 Sudeste 40 Sudeste 0 -- -- 82
2021-02-06 01:00:00 10.1 9 Nordeste 29 Sudeste 0 -- -- 82
2021-02-06 00:00:00 10.5 18 Sudeste 43 Sudeste 0 -- -- 81
2021-02-05 23:00:00 7.9 5 Oeste 10 Sudoeste 0 -- -- 99
2021-02-05 22:00:00 8.2 7 Oeste 13 Oeste 0 -- -- 99
2021-02-05 21:00:00 8.5 5 Oeste 13 Oeste 0 -- -- 97
2021-02-05 20:00:00 9 4 Oeste 12 Sudoeste 0 -- -- 95
2021-02-05 19:00:00 10 4 Sudoeste 18 Este 0 -- -- 92
2021-02-05 18:00:00 12.1 7 Nordeste 18 Nordeste 0 -- -- 74
2021-02-05 17:00:00 12.7 12 Nordeste 35 Este 0 -- -- 72
2021-02-05 16:00:00 13.7 13 Sudeste 28 Sudeste 0 -- -- 70
2021-02-05 15:00:00 12.4 6 Noroeste 12 Noroeste 0 -- -- 84
2021-02-05 14:00:00 10.5 6 Oeste 14 Oeste 0 -- -- 92
2021-02-05 13:00:00 10.9 9 Oeste 22 Oeste 0 -- -- 90
2021-02-05 12:00:00 11.6 4 Oeste 8 Noroeste 0 -- -- 88
2021-02-05 11:00:00 8.2 3 Norte 6 Nordeste 0 -- -- 100
2021-02-05 10:00:00 6.3 2 Oeste 6 Nordeste 0 -- -- 100
2021-02-05 09:00:00 5.9 3 Nordeste 8 Sudoeste 0 -- -- 99
2021-02-05 08:00:00 5.7 3 Sudoeste 37 Sudeste 0 -- -- 97
2021-02-05 07:00:00 9.1 19 Sudeste 39 Sudeste 0 -- -- 100
2021-02-05 06:00:00 5 4 Este 13 Oeste 0.4 -- -- 100
2021-02-05 05:00:00 5.2 2 Sur 10 Noroeste 0 -- -- 100
2021-02-05 04:00:00 5.2 3 Sudoeste 12 Sudeste 0 -- -- 99
2021-02-05 03:00:00 5.6 4 Sudeste 6 Sudeste 0 -- -- 99
2021-02-05 02:00:00 5.2 3 Sudoeste 10 Sudeste 0 -- -- 98
2021-02-05 01:00:00 5 6 Sudeste 9 Sudeste 0 -- -- 95
2021-02-05 00:00:00 5.4 5 Sudeste 9 Sudeste 0 -- -- 94
2021-02-04 23:00:00 6.9 3 Sur 8 Este 0 -- -- 91
2021-02-04 22:00:00 8.2 3 Sur 18 Oeste 0 -- -- 90
2021-02-04 21:00:00 9.2 5 Nordeste 29 Sudeste 0 -- -- 88
2021-02-04 20:00:00 12.2 17 Sudeste 36 Sudeste 0 -- -- 76
2021-02-04 19:00:00 12.4 14 Sudeste 31 Sudeste 0 -- -- 76
2021-02-04 18:00:00 13.1 14 Sudeste 26 Este 0 -- -- 74
2021-02-04 17:00:00 13.6 11 Este 30 Sudeste 0 -- -- 73
2021-02-04 16:00:00 14.1 18 Sudeste 34 Sudeste 0 -- -- 72
2021-02-04 15:00:00 13.5 15 Sudeste 27 Este 0 -- -- 74
2021-02-04 14:00:00 12.8 10 Sudeste 23 Sudeste 0 -- -- 78
2021-02-04 13:00:00 11.8 5 Sudoeste 22 Este 0 -- -- 86
2021-02-04 12:00:00 10 0 Calma 8 Oeste 0 -- -- 91
2021-02-04 11:00:00 9.7 5 Sudoeste 17 Sudeste 0 -- -- 90
2021-02-04 10:00:00 9.2 3 Sudeste 7 Sur 0 -- -- 92
2021-02-04 09:00:00 8.7 3 Nordeste 8 Sudeste 0 -- -- 93
2021-02-04 08:00:00 8.7 4 Sudeste 6 Oeste 0 -- -- 92
2021-02-04 07:00:00 8.8 3 Este 7 Sudeste 0 -- -- 92
2021-02-04 06:00:00 9.5 2 Noroeste 26 Sudeste 0 -- -- 90
2021-02-04 05:00:00 10.2 18 Sudeste 28 Sudeste 0 -- -- 86
2021-02-04 04:00:00 10 8 Sudeste 15 Sudeste 0 -- -- 87
2021-02-04 03:00:00 9.9 8 Sudeste 29 Sur 0 -- -- 89
2021-02-04 02:00:00 10.5 18 Sudeste 35 Sudeste 0 -- -- 81
2021-02-04 01:00:00 9 4 Este 15 Noroeste 0.2 -- -- 94
2021-02-04 00:00:00 10 6 Este 34 Sudeste 0 -- -- 88
2021-02-03 23:00:00 10.1 19 Sudeste 32 Sudeste 0 -- -- 85
2021-02-03 22:00:00 10.2 19 Sudeste 29 Sudeste 0 -- -- 82
2021-02-03 21:00:00 10.8 12 Sur 21 Sur 0 -- -- 76
2021-02-03 20:00:00 10.7 12 Sur 30 Sudeste 0 -- -- 75
2021-02-03 19:00:00 11.1 18 Sur 33 Sur 0 -- -- 75
2021-02-03 18:00:00 11.4 11 Sur 23 Sur 0 -- -- 76
2021-02-03 17:00:00 12.1 13 Sur 28 Sur 0 -- -- 70
2021-02-03 16:00:00 12 9 Sudoeste 32 Oeste 0 -- -- 71
2021-02-03 15:00:00 12.2 12 Oeste 36 Sudoeste 0 -- -- 72
2021-02-03 14:00:00 12.6 15 Sudoeste 38 Sudoeste 0 -- -- 68
2021-02-03 13:00:00 12.4 17 Sudoeste 41 Sudoeste 0 -- -- 69
2021-02-03 12:00:00 12.1 17 Sudoeste 35 Oeste 0 -- -- 73
2021-02-03 11:00:00 11.9 18 Sudoeste 38 Sudoeste 0 -- -- 75
2021-02-03 10:00:00 12.2 14 Sudoeste 43 Sudoeste 0 -- -- 73
2021-02-03 09:00:00 12.1 20 Sudoeste 52 Sudoeste 0 -- -- 75
2021-02-03 08:00:00 10.5 14 Sudeste 35 Sudoeste 0 -- -- 76
2021-02-03 07:00:00 12.1 8 Sudoeste 34 Sur 0 -- -- 72
2021-02-03 06:00:00 11.9 12 Sur 33 Sur 0 -- -- 72
2021-02-03 05:00:00 11 21 Sudeste 32 Sudeste 0 -- -- 75
2021-02-03 04:00:00 10.2 21 Sudeste 34 Este 0 -- -- 80
2021-02-03 03:00:00 9.7 23 Sudeste 37 Sudeste 0 -- -- 83
2021-02-03 02:00:00 10.6 15 Sur 26 Sur 0 -- -- 76
2021-02-03 01:00:00 10.9 11 Sur 31 Sur 0 -- -- 78
2021-02-03 00:00:00 10.7 8 Sur 19 Sudoeste 0 -- -- 79
2021-02-02 23:00:00 9.5 7 Sudeste 21 Sudoeste 0 -- -- 80
2021-02-02 22:00:00 7.9 8 Sur 15 Norte 0 -- -- 84
2021-02-02 21:00:00 10.7 6 Oeste 17 Nordeste 0 -- -- 76
2021-02-02 20:00:00 10.4 4 Nordeste 17 Sur 0 -- -- 77
2021-02-02 19:00:00 10.5 8 Sudeste 13 Sudeste 0 -- -- 80
2021-02-02 18:00:00 11.6 7 Nordeste 15 Nordeste 0 -- -- 79
2021-02-02 17:00:00 12.1 3 Nordeste 33 Oeste 0.2 -- -- 77
2021-02-02 16:00:00 13.1 17 Oeste 29 Oeste 0 -- -- 73
2021-02-02 15:00:00 14.8 21 Oeste 36 Oeste 0 -- -- 67
2021-02-02 14:00:00 14.6 9 Oeste 23 Oeste 0 -- -- 68
2021-02-02 13:00:00 13.7 13 Sudoeste 29 Sudoeste 0 -- -- 73
2021-02-02 12:00:00 13.8 8 Sudoeste 22 Oeste 0 -- -- 71
2021-02-02 11:00:00 13.1 6 Noroeste 21 Sudoeste 0 -- -- 75
2021-02-02 10:00:00 12 6 Oeste 20 Sudoeste 0 -- -- 77
2021-02-02 09:00:00 10.9 5 Sur 19 Sur 0 -- -- 80
2021-02-02 08:00:00 10.4 7 Sudoeste 33 Oeste 0 -- -- 83
2021-02-02 07:00:00 11.3 20 Oeste 44 Oeste 0 -- -- 82
2021-02-02 06:00:00 10.9 14 Oeste 28 Oeste 0 -- -- 84
2021-02-02 05:00:00 10.2 3 Sur 26 Sudoeste 0 -- -- 87
2021-02-02 04:00:00 10.3 8 Oeste 29 Oeste 0 -- -- 87
2021-02-02 03:00:00 10.5 12 Sudoeste 27 Sudoeste 0 -- -- 86
2021-02-02 02:00:00 10.1 8 Sudoeste 22 Oeste 0 -- -- 86
2021-02-02 01:00:00 9.6 6 Sur 24 Sudoeste 0 -- -- 87
2021-02-02 00:00:00 8.8 4 Este 10 Sudeste 0 -- -- 95
2021-02-01 23:00:00 9.5 2 Sudeste 10 Oeste 0 -- -- 93
2021-02-01 22:00:00 9.7 5 Sudeste 8 Sudeste 0 -- -- 97
2021-02-01 21:00:00 10.1 4 Sur 8 Sur 0.2 -- -- 96
2021-02-01 20:00:00 10.5 4 Sudoeste 9 Sudoeste 0.8 -- -- 95
2021-02-01 19:00:00 11 7 Oeste 17 Oeste 1.2 -- -- 90
2021-02-01 18:00:00 11.4 6 Sudeste 8 Sudeste 0 -- -- 87
2021-02-01 17:00:00 11.8 3 Nordeste 6 Nordeste 0 -- -- 83
2021-02-01 16:00:00 11.1 5 Este 10 Sudeste 0 -- -- 88
2021-02-01 15:00:00 10.7 2 Oeste 8 Sudeste 0 -- -- 83
2021-02-01 14:00:00 10.4 3 Nordeste 9 Noroeste 0 -- -- 78
2021-02-01 13:00:00 11.1 9 Noroeste 17 Oeste 0 -- -- 78
2021-02-01 12:00:00 11.1 8 Oeste 15 Oeste 0 -- -- 74
2021-02-01 11:00:00 10.3 7 Noroeste 12 Oeste 0 -- -- 74
2021-02-01 10:00:00 8 2 Sudeste 9 Oeste 0 -- -- 84
2021-02-01 09:00:00 5 0 Calma 6 Sur 0 -- -- 88
2021-02-01 08:00:00 5.2 4 Sudeste 9 Sudoeste 0 -- -- 89
2021-02-01 07:00:00 7.4 2 Sudoeste 15 Sudoeste 0 -- -- 79
2021-02-01 06:00:00 7.3 5 Sur 10 Sur 0 -- -- 83
2021-02-01 05:00:00 8.1 5 Sudoeste 14 Sur 0 -- -- 82
2021-02-01 04:00:00 8.2 4 Sudoeste 14 Oeste 0 -- -- 83
2021-02-01 03:00:00 8.6 4 Sur 9 Sudoeste 0 -- -- 84
2021-02-01 02:00:00 8.7 4 Sudoeste 11 Sudoeste 0 -- -- 87
2021-02-01 01:00:00 7.9 5 Sur 9 Sur 0 -- -- 91
2021-02-01 00:00:00 9.7 3 Oeste 10 Sudoeste 0 -- -- 85